Time;durP1;ratioP1;P1;durP2;ratioP2;P2;SDS_P1;SDS_P2;PMS_P1;PMS_P2;Temp;Humidity;BMP_temperature;BMP_pressure;BME280_temperature;BME280_humidity;BME280_pressure;Samples;Min_cycle;Max_cycle;Signal;HPM_P1;HPM_P2
2022/08/15 00:00:43;;;;;;;18.35;13.93;;;;;;;19.33;74.15;97671.13;5030493;28;20051;-70
2022/08/15 00:03:35;;;;;;;19.35;14.32;;;;;;;19.30;73.97;97663.53;5030634;28;20048;-70
2022/08/15 00:06:05;;;;;;;21.88;13.90;;;;;;;19.27;74.25;97669.03;5029586;28;20524;-69
2022/08/15 00:08:35;;;;;;;18.85;14.65;;;;;;;19.24;74.19;97669.78;5029971;28;20598;-70
2022/08/15 00:11:12;;;;;;;18.83;13.90;;;;;;;19.23;74.25;97679.28;5028853;28;20083;-70
2022/08/15 00:13:39;;;;;;;20.08;14.20;;;;;;;19.22;74.22;97677.69;5030167;28;20021;-69
2022/08/15 00:16:05;;;;;;;21.98;14.73;;;;;;;19.19;74.28;97673.69;5029970;28;20498;-70
2022/08/15 00:18:32;;;;;;;18.52;14.50;;;;;;;19.16;74.41;97671.66;5030057;28;20053;-69
2022/08/15 00:20:57;;;;;;;21.40;13.63;;;;;;;19.15;74.30;97672.81;5029899;28;20072;-69
2022/08/15 00:23:24;;;;;;;20.27;13.90;;;;;;;19.12;74.23;97666.03;5029757;28;20021;-70
2022/08/15 00:25:53;;;;;;;22.52;15.13;;;;;;;19.10;74.28;97673.13;5030098;28;20068;-69
2022/08/15 00:28:19;;;;;;;20.33;14.63;;;;;;;19.08;74.56;97673.53;5030177;28;20025;-70
2022/08/15 00:30:45;;;;;;;23.85;15.93;;;;;;;19.02;74.42;97673.00;5029742;28;20651;-69
2022/08/15 00:33:12;;;;;;;21.15;15.38;;;;;;;18.99;74.61;97672.97;5030016;28;20119;-70
2022/08/15 00:35:41;;;;;;;22.15;15.10;;;;;;;18.96;74.63;97677.28;5028435;28;20059;-70
2022/08/15 00:38:08;;;;;;;22.52;14.20;;;;;;;18.93;74.58;97679.97;5029861;28;20821;-70
2022/08/15 00:41:39;;;;;;;19.55;14.25;;;;;;;18.89;74.81;97677.16;5029786;28;20036;-70
2022/08/15 00:43:21;;;;;;;21.77;14.55;;;;;;;18.83;74.88;97687.75;5027133;28;20046;-70
2022/08/15 00:45:47;;;;;;;21.70;14.45;;;;;;;18.81;75.10;97675.41;5029575;28;20049;-69
2022/08/15 00:50:57;;;;;;;21.25;14.80;;;;;;;18.76;74.89;97670.94;5029185;28;20076;-70
2022/08/15 00:53:23;;;;;;;20.15;14.98;;;;;;;18.77;75.41;97677.31;5029993;28;20049;-69
2022/08/15 00:55:49;;;;;;;20.90;15.52;;;;;;;18.75;75.36;97667.38;5030187;28;20021;-69
2022/08/15 00:58:15;;;;;;;19.73;14.40;;;;;;;18.74;75.42;97676.88;5028443;28;20483;-69
2022/08/15 01:00:45;;;;;;;20.30;14.68;;;;;;;18.72;75.33;97667.34;5029779;28;20061;-69
2022/08/15 01:03:14;;;;;;;21.20;14.77;;;;;;;18.72;75.27;97670.91;5028263;28;20072;-69
2022/08/15 01:05:40;;;;;;;22.55;15.15;;;;;;;18.73;75.39;97666.16;5029649;28;20088;-69
2022/08/15 01:08:06;;;;;;;22.45;14.95;;;;;;;18.72;75.52;97668.13;5029837;28;20058;-69
2022/08/15 01:10:32;;;;;;;20.42;14.48;;;;;;;18.71;75.82;97665.72;5032144;28;20043;-69
2022/08/15 01:12:58;;;;;;;19.80;14.50;;;;;;;18.71;75.99;97662.97;5033911;28;20024;-70
2022/08/15 01:15:24;;;;;;;24.23;15.90;;;;;;;18.70;76.10;97664.13;5033607;28;20025;-70
2022/08/15 01:17:50;;;;;;;22.25;15.45;;;;;;;18.70;76.05;97673.25;5032717;28;20360;-69
2022/08/15 01:20:27;;;;;;;22.08;15.55;;;;;;;18.69;75.84;97660.53;5034792;28;20033;-69
2022/08/15 01:23:01;;;;;;;22.33;15.85;;;;;;;18.68;76.09;97652.59;5033711;28;20032;-69
2022/08/15 01:25:37;;;;;;;21.88;14.63;;;;;;;18.68;75.92;97655.34;5031586;28;20022;-70
2022/08/15 01:28:03;;;;;;;22.95;15.70;;;;;;;18.68;76.20;97645.03;5034365;28;20045;-69
2022/08/15 01:30:51;;;;;;;24.60;16.02;;;;;;;18.65;75.92;97645.78;5033229;28;20446;-70
2022/08/15 01:33:19;;;;;;;22.10;15.50;;;;;;;18.66;75.85;97643.81;5033654;28;20163;-69
2022/08/15 01:35:48;;;;;;;23.90;15.52;;;;;;;18.63;76.26;97642.56;5033234;28;20017;-69
2022/08/15 01:38:30;;;;;;;22.20;16.17;;;;;;;18.61;76.09;97647.69;5033379;28;20051;-70
2022/08/15 01:41:11;;;;;;;22.77;15.23;;;;;;;18.58;75.85;97649.25;5031722;28;20414;-69
2022/08/15 01:43:49;;;;;;;21.42;15.50;;;;;;;18.56;76.12;97648.81;5031539;28;20046;-70
2022/08/15 01:46:15;;;;;;;21.85;15.85;;;;;;;18.54;76.08;97644.81;5031153;28;20483;-70
2022/08/15 01:48:57;;;;;;;25.13;16.40;;;;;;;18.51;76.25;97640.00;5033006;28;20025;-70
2022/08/15 01:51:23;;;;;;;26.25;16.25;;;;;;;18.48;76.15;97643.50;5031638;28;20048;-70
2022/08/15 01:53:59;;;;;;;26.40;16.38;;;;;;;18.45;76.20;97631.16;5032999;28;20467;-69
2022/08/15 01:56:32;;;;;;;25.08;17.10;;;;;;;18.44;76.39;97638.69;5032739;28;20017;-69
2022/08/15 01:59:01;;;;;;;22.20;16.42;;;;;;;18.42;76.37;97637.44;5032430;28;20025;-70
2022/08/15 02:01:54;;;;;;;24.53;15.73;;;;;;;18.42;76.29;97631.88;5032750;28;20116;-70
2022/08/15 02:04:22;;;;;;;24.83;16.45;;;;;;;18.42;76.49;97616.03;5031419;28;20351;-70
2022/08/15 02:06:48;;;;;;;25.85;17.35;;;;;;;18.40;76.31;97621.16;5032399;28;20434;-69
2022/08/15 02:09:17;;;;;;;25.42;16.70;;;;;;;18.38;76.15;97622.69;5032797;28;20034;-70
2022/08/15 02:11:44;;;;;;;;;;;;;;;18.36;76.36;97623.06;5033311;28;20063;-70
2022/08/15 02:14:11;;;;;;;28.05;16.92;;;;;;;18.35;76.51;97626.19;5032602;28;19913;-69
2022/08/15 02:16:38;;;;;;;23.55;16.70;;;;;;;18.30;76.46;97630.91;5032417;28;20494;-70
2022/08/15 02:19:09;;;;;;;26.95;16.88;;;;;;;18.29;76.54;97626.53;5030843;28;20029;-70
2022/08/15 02:21:36;;;;;;;23.20;16.38;;;;;;;18.27;76.44;97631.63;5031715;28;20052;-70
2022/08/15 02:24:03;;;;;;;25.05;16.55;;;;;;;18.25;77.04;97639.53;5033143;28;20017;-70
2022/08/15 02:26:28;;;;;;;26.83;17.13;;;;;;;18.22;76.82;97634.72;5032527;28;20029;-69
2022/08/15 02:28:54;;;;;;;24.30;16.48;;;;;;;18.21;76.82;97640.63;5032412;28;20041;-70
2022/08/15 02:31:23;;;;;;;22.75;16.17;;;;;;;18.20;76.50;97637.06;5031984;28;20020;-70
2022/08/15 02:33:55;;;;;;;22.38;16.13;;;;;;;18.17;76.82;97635.00;5032110;28;20349;-70
2022/08/15 02:36:22;;;;;;;23.98;16.13;;;;;;;18.16;76.75;97630.63;5032407;28;20022;-70
2022/08/15 02:38:49;;;;;;;25.05;16.75;;;;;;;18.14;76.80;97633.75;5033439;28;20025;-70
2022/08/15 02:41:24;;;;;;;24.27;16.75;;;;;;;18.12;76.79;97626.97;5015614;28;20075;-70
2022/08/15 02:43:50;;;;;;;24.95;17.10;;;;;;;18.07;76.72;97628.09;5033254;28;20045;-70
2022/08/15 02:46:17;;;;;;;23.52;16.55;;;;;;;18.06;76.92;97623.72;5033341;28;20025;-70
2022/08/15 02:48:45;;;;;;;24.60;15.70;;;;;;;18.06;76.89;97620.13;5033575;28;20519;-70
2022/08/15 02:51:14;;;;;;;24.77;16.00;;;;;;;18.03;76.93;97630.00;5033647;28;20368;-70
2022/08/15 02:53:46;;;;;;;21.90;16.60;;;;;;;17.99;76.66;97640.22;5033708;28;20116;-70
2022/08/15 02:56:11;;;;;;;23.23;15.88;;;;;;;17.95;76.79;97634.53;5033410;28;20034;-70
2022/08/15 02:58:37;;;;;;;25.15;16.85;;;;;;;17.94;76.97;97632.16;5032977;28;20368;-70
2022/08/15 03:01:06;;;;;;;28.40;17.70;;;;;;;17.93;77.02;97644.41;5033100;28;20026;-70
2022/08/15 03:03:31;;;;;;;26.52;17.17;;;;;;;17.91;77.13;97641.19;5033389;28;20067;-70
2022/08/15 03:05:57;;;;;;;25.70;17.15;;;;;;;17.89;77.34;97647.13;5033083;28;20025;-70
2022/08/15 03:08:24;;;;;;;27.52;17.52;;;;;;;17.86;77.04;97639.53;5033299;28;20033;-69
2022/08/15 03:10:50;;;;;;;24.40;17.73;;;;;;;17.84;77.15;97644.63;5031522;28;20022;-69
2022/08/15 03:13:16;;;;;;;27.90;16.92;;;;;;;17.79;77.20;97631.84;5032936;28;20018;-70
2022/08/15 03:15:47;;;;;;;24.17;16.90;;;;;;;17.79;77.15;97639.38;5033224;28;20030;-70
2022/08/15 03:18:13;;;;;;;24.88;17.35;;;;;;;17.75;77.16;97628.19;5032824;28;20034;-70
2022/08/15 03:20:41;;;;;;;26.05;16.85;;;;;;;17.74;77.29;97623.03;5032568;28;20395;-69
2022/08/15 03:23:07;;;;;;;26.48;18.02;;;;;;;17.74;77.50;97626.59;5032957;28;20060;-70
2022/08/15 03:25:46;;;;;;;25.23;16.92;;;;;;;17.73;77.33;97630.53;5033127;28;20025;-70
2022/08/15 03:28:12;;;;;;;25.08;17.15;;;;;;;17.71;77.44;97621.81;5032434;28;20032;-70
2022/08/15 03:30:38;;;;;;;26.45;18.08;;;;;;;17.69;77.55;97633.25;5032439;28;20025;-70
2022/08/15 03:33:05;;;;;;;30.10;18.88;;;;;;;17.69;77.47;97632.44;5032469;28;20467;-70
2022/08/15 03:35:37;;;;;;;26.52;18.00;;;;;;;17.65;77.71;97629.59;5032527;28;20017;-70
2022/08/15 03:38:02;;;;;;;25.63;17.45;;;;;;;17.63;77.61;97636.66;5031304;28;20066;-70
2022/08/15 03:40:29;;;;;;;27.42;17.90;;;;;;;17.64;77.81;97635.50;5032202;28;20317;-70
2022/08/15 03:42:58;;;;;;;26.77;17.60;;;;;;;17.64;77.84;97630.75;5031769;28;20475;-70
2022/08/15 03:45:25;;;;;;;26.83;17.60;;;;;;;17.65;77.75;97621.28;5032474;28;20065;-70
2022/08/15 03:47:52;;;;;;;27.38;17.73;;;;;;;17.68;78.14;97619.75;5028016;28;20431;-69
2022/08/15 03:50:19;;;;;;;26.50;17.58;;;;;;;17.70;77.96;97611.88;5031379;28;20033;-70
2022/08/15 03:52:55;;;;;;;27.27;17.88;;;;;;;17.70;77.78;97620.19;5031136;28;20037;-70
2022/08/15 03:55:22;;;;;;;25.60;16.95;;;;;;;17.74;78.27;97611.94;5031672;28;20087;-69
2022/08/15 03:57:48;;;;;;;27.15;17.75;;;;;;;17.77;78.36;97608.44;5031425;28;20478;-69
2022/08/15 04:00:16;;;;;;;28.40;17.55;;;;;;;17.75;78.45;97606.00;5031738;28;20033;-69
2022/08/15 04:02:42;;;;;;;26.33;17.52;;;;;;;17.79;78.16;97608.88;5031947;28;20092;-70
2022/08/15 04:05:08;;;;;;;27.17;17.70;;;;;;;17.80;78.22;97608.50;5031768;28;20057;-69
2022/08/15 04:07:36;;;;;;;27.10;17.58;;;;;;;17.81;78.54;97601.00;5031482;28;20060;-69
2022/08/15 04:10:06;;;;;;;25.83;18.23;;;;;;;17.82;78.28;97595.06;5031126;28;20025;-69
2022/08/15 04:12:35;;;;;;;25.65;17.13;;;;;;;17.85;78.53;97599.88;5031546;28;20395;-69
2022/08/15 04:15:07;;;;;;;26.30;16.52;;;;;;;17.86;78.28;97609.81;5031675;28;20018;-69
2022/08/15 04:17:33;;;;;;;24.48;16.35;;;;;;;17.88;79.05;97600.31;5030789;28;20119;-69
2022/08/15 04:19:58;;;;;;;24.58;16.48;;;;;;;17.91;78.75;97596.81;5031311;28;20448;-70
2022/08/15 04:22:34;;;;;;;24.50;16.98;;;;;;;17.93;78.59;97594.47;5031288;28;20021;-69
2022/08/15 04:25:09;;;;;;;25.60;16.58;;;;;;;17.95;78.65;97597.69;5031523;28;20021;-70
2022/08/15 04:27:35;;;;;;;25.00;16.75;;;;;;;17.97;78.51;97598.91;5031107;28;20102;-70
2022/08/15 04:30:01;;;;;;;22.75;15.55;;;;;;;18.02;78.79;97606.19;5031448;28;20495;-69
2022/08/15 04:32:27;;;;;;;25.90;16.73;;;;;;;18.05;78.50;97615.75;5031303;28;20383;-69
2022/08/15 04:34:54;;;;;;;24.75;16.20;;;;;;;18.05;78.65;97608.22;5031649;28;20033;-69
2022/08/15 04:37:21;;;;;;;25.30;16.23;;;;;;;18.07;78.46;97617.00;5031240;28;20025;-69
2022/08/15 04:39:48;;;;;;;24.25;16.30;;;;;;;18.12;78.49;97624.19;5030815;28;20048;-70
2022/08/15 04:42:15;;;;;;;28.27;17.50;;;;;;;18.11;78.53;97617.88;5031120;28;20061;-69
2022/08/15 04:44:41;;;;;;;23.42;15.63;;;;;;;18.13;78.62;97611.94;5030412;28;20127;-69
2022/08/15 04:47:06;;;;;;;23.65;16.85;;;;;;;18.15;78.76;97612.38;5031104;28;20109;-69
2022/08/15 04:49:32;;;;;;;29.15;16.38;;;;;;;18.17;78.79;97604.47;5030907;28;20093;-69
2022/08/15 04:52:12;;;;;;;26.90;16.50;;;;;;;18.17;78.93;97615.59;5031098;28;20029;-69
2022/08/15 04:54:38;;;;;;;22.77;15.70;;;;;;;18.19;78.54;97610.47;5031448;28;20032;-69
2022/08/15 04:57:05;;;;;;;28.70;17.25;;;;;;;18.23;79.03;97624.41;5029892;28;20574;-69
2022/08/15 04:59:31;;;;;;;27.08;17.15;;;;;;;18.25;79.01;97620.09;5030807;28;20360;-69
2022/08/15 05:01:56;;;;;;;28.83;17.75;;;;;;;18.31;79.33;97617.81;5031082;28;20080;-69
2022/08/15 05:04:23;;;;;;;26.25;16.65;;;;;;;18.34;79.06;97608.75;5031219;28;20021;-69
2022/08/15 05:06:48;;;;;;;25.60;16.70;;;;;;;18.38;79.29;97612.41;5030886;28;20033;-69
2022/08/15 05:09:14;;;;;;;27.23;16.90;;;;;;;18.43;79.40;97602.94;5030507;28;20094;-69
2022/08/15 05:11:39;;;;;;;27.63;17.15;;;;;;;18.48;79.38;97613.75;5030628;28;20526;-69
2022/08/15 05:14:05;;;;;;;24.45;16.88;;;;;;;18.54;79.38;97611.50;5031161;28;20025;-69
2022/08/15 05:16:32;;;;;;;26.98;16.55;;;;;;;18.59;79.26;97614.75;5030933;28;20040;-69
2022/08/15 05:18:58;;;;;;;22.20;16.10;;;;;;;18.67;79.42;97614.88;5030433;28;20025;-69
2022/08/15 05:21:23;;;;;;;22.50;15.95;;;;;;;18.73;79.37;97630.06;5030642;28;20037;-69
2022/08/15 05:23:49;;;;;;;23.33;16.05;;;;;;;18.79;79.34;97627.75;5030964;28;20096;-69
2022/08/15 05:26:14;;;;;;;20.67;14.40;;;;;;;18.87;80.47;97629.50;5031008;28;20032;-69
2022/08/15 05:28:40;;;;;;;23.83;16.00;;;;;;;18.91;80.14;97630.34;5030669;28;20022;-70
2022/08/15 05:31:08;;;;;;;26.05;16.98;;;;;;;18.98;79.74;97630.47;5030752;28;20026;-70
2022/08/15 05:33:34;;;;;;;25.02;16.95;;;;;;;19.04;79.54;97630.97;5031069;28;20091;-70
2022/08/15 05:36:03;;;;;;;26.15;17.75;;;;;;;19.11;79.79;97644.97;5030886;28;20036;-69
2022/08/15 05:38:48;;;;;;;29.92;18.27;;;;;;;19.17;79.58;97637.13;5030989;28;20037;-69
2022/08/15 05:41:23;;;;;;;29.38;18.40;;;;;;;19.23;79.39;97629.25;5030976;28;20033;-69
2022/08/15 05:44:22;;;;;;;30.05;18.20;;;;;;;19.23;79.49;97638.41;5031023;28;20048;-69
2022/08/15 05:46:50;;;;;;;29.13;17.80;;;;;;;19.25;79.60;97646.34;5030900;28;20033;-70
2022/08/15 05:49:39;;;;;;;30.13;18.08;;;;;;;19.25;78.94;97638.84;5030421;28;20084;-70
2022/08/15 05:52:33;;;;;;;28.00;18.23;;;;;;;19.33;79.19;97643.34;5030827;28;20379;-69
2022/08/15 05:55:21;;;;;;;28.08;17.38;;;;;;;19.38;79.33;97639.41;5031278;28;20307;-70
2022/08/15 05:57:46;;;;;;;25.42;17.08;;;;;;;19.40;79.56;97642.63;5034718;28;20029;-69
2022/08/15 06:00:15;;;;;;;28.67;18.10;;;;;;;19.39;79.15;97638.25;5033868;28;20033;-69
2022/08/15 06:02:49;;;;;;;30.10;18.52;;;;;;;19.39;78.97;97642.97;5034666;28;20117;-70
2022/08/15 06:05:27;;;;;;;28.58;19.85;;;;;;;19.41;79.25;97633.09;5034306;28;20055;-70
2022/08/15 06:07:54;;;;;;;29.02;20.75;;;;;;;19.45;79.32;97639.53;5034364;28;20064;-69
2022/08/15 06:10:36;;;;;;;28.85;17.73;;;;;;;19.50;79.41;97641.16;5034108;28;20075;-70
2022/08/15 06:13:19;;;;;;;27.85;18.08;;;;;;;19.56;79.26;97634.09;5034386;28;20067;-69
2022/08/15 06:16:16;;;;;;;26.00;17.10;;;;;;;19.62;79.32;97634.56;5033979;28;20108;-69
2022/08/15 06:18:44;;;;;;;28.70;19.08;;;;;;;19.69;79.25;97628.31;5033837;28;20388;-69
2022/08/15 06:21:34;;;;;;;29.33;17.98;;;;;;;19.73;79.35;97631.94;5033590;28;20139;-69
2022/08/15 06:25:02;;;;;;;25.25;17.00;;;;;;;19.75;79.21;97618.47;5033900;28;20026;-70
2022/08/15 06:28:15;;;;;;;25.17;16.77;;;;;;;19.79;79.15;97624.84;5031357;28;20480;-69
2022/08/15 06:30:57;;;;;;;26.10;17.15;;;;;;;19.83;79.35;97628.47;4999261;28;20088;-69
2022/08/15 06:33:36;;;;;;;24.73;16.48;;;;;;;19.87;79.02;97626.53;5033830;28;20058;-68
2022/08/15 06:36:30;;;;;;;22.20;15.70;;;;;;;19.95;79.14;97623.88;5029321;28;20013;-69
2022/08/15 06:39:25;;;;;;;23.30;15.85;;;;;;;20.03;79.11;97623.56;5031824;28;20053;-69
2022/08/15 06:42:04;;;;;;;18.58;11.80;;;;;;;20.11;79.12;97618.09;5032105;28;20029;-68
2022/08/15 06:44:33;;;;;;;17.98;12.55;;;;;;;20.16;79.10;97628.88;5032362;28;20045;-68
2022/08/15 06:47:09;;;;;;;20.50;13.75;;;;;;;20.21;78.91;97629.34;5031195;28;20639;-69
2022/08/15 06:49:41;;;;;;;18.15;13.18;;;;;;;20.30;78.84;97636.59;5031310;28;20032;-68
2022/08/15 06:52:07;;;;;;;21.23;13.02;;;;;;;20.39;78.75;97631.50;5031930;28;20021;-68
2022/08/15 06:54:35;;;;;;;18.42;13.13;;;;;;;20.50;78.69;97639.97;5032252;28;20025;-68
2022/08/15 06:57:00;;;;;;;21.05;12.88;;;;;;;20.61;79.09;97640.06;5032187;28;20017;-68
2022/08/15 06:59:45;;;;;;;18.77;13.02;;;;;;;20.69;78.76;97636.16;5031834;28;20048;-69
2022/08/15 07:02:16;;;;;;;20.38;15.10;;;;;;;20.78;78.34;97641.47;5030612;28;20025;-70
2022/08/15 07:05:05;;;;;;;19.25;14.02;;;;;;;20.84;78.55;97644.69;5031977;28;20021;-69
2022/08/15 07:07:49;;;;;;;21.20;13.90;;;;;;;20.91;78.15;97645.53;5031330;28;20026;-69
2022/08/15 07:10:29;;;;;;;19.15;13.43;;;;;;;20.99;78.19;97657.53;5031230;28;20439;-69
2022/08/15 07:13:08;;;;;;;19.05;14.30;;;;;;;21.07;78.09;97661.22;5031432;28;20036;-69
2022/08/15 07:15:45;;;;;;;18.35;13.60;;;;;;;21.12;77.74;97656.06;5031377;28;20049;-70
2022/08/15 07:18:19;;;;;;;19.23;13.73;;;;;;;21.17;77.57;97656.91;5030643;28;20057;-70
2022/08/15 07:20:44;;;;;;;19.10;12.77;;;;;;;21.22;77.65;97650.97;5030967;28;20116;-70
2022/08/15 07:23:24;;;;;;;19.13;12.65;;;;;;;21.27;77.48;97645.03;5031763;28;20452;-69
2022/08/15 07:25:52;;;;;;;16.65;12.55;;;;;;;21.32;77.18;97653.03;5031703;28;20025;-69
2022/08/15 07:28:24;;;;;;;19.92;14.07;;;;;;;21.39;77.22;97644.72;5031317;28;20033;-69
2022/08/15 07:30:57;;;;;;;17.33;11.70;;;;;;;21.47;77.02;97639.97;5031316;28;20104;-68
2022/08/15 07:33:29;;;;;;;17.38;12.07;;;;;;;21.54;76.46;97642.00;5031668;28;20487;-68
2022/08/15 07:36:12;;;;;;;13.93;10.73;;;;;;;21.63;76.44;97641.66;5031228;28;20026;-69
2022/08/15 07:38:38;;;;;;;13.50;10.38;;;;;;;21.68;76.11;97642.13;5031021;28;20038;-69
2022/08/15 07:41:22;;;;;;;12.48;9.77;;;;;;;21.75;75.86;97646.91;5030522;28;20391;-69
2022/08/15 07:43:57;;;;;;;12.93;10.20;;;;;;;21.82;75.91;97657.31;5031396;28;20041;-70
2022/08/15 07:46:37;;;;;;;12.55;10.30;;;;;;;21.87;75.71;97651.34;5031239;28;20112;-69
2022/08/15 07:49:27;;;;;;;11.63;9.13;;;;;;;21.93;75.64;97643.41;5031287;28;20070;-69
2022/08/15 07:52:13;;;;;;;15.40;10.98;;;;;;;22.06;75.75;97649.44;5030968;28;20037;-69
2022/08/15 07:54:41;;;;;;;15.13;11.00;;;;;;;22.17;75.33;97650.28;5030621;28;20655;-70
2022/08/15 07:57:22;;;;;;;13.40;10.63;;;;;;;22.25;75.27;97642.72;5031029;28;20025;-69
2022/08/15 08:00:09;;;;;;;10.80;9.10;;;;;;;22.35;75.16;97643.94;5030850;28;20562;-69
2022/08/15 08:02:43;;;;;;;12.98;9.98;;;;;;;22.44;74.78;97641.59;5027413;28;20075;-71
2022/08/15 08:05:10;;;;;;;11.98;9.13;;;;;;;22.51;74.49;97643.59;5031134;28;20480;-71
2022/08/15 08:07:40;;;;;;;11.98;9.15;;;;;;;22.57;74.03;97648.41;5030338;28;20030;-71
2022/08/15 08:10:21;;;;;;;11.23;8.77;;;;;;;22.64;74.05;97652.41;5030260;28;20025;-71
2022/08/15 08:13:19;;;;;;;12.05;9.55;;;;;;;22.71;73.66;97647.63;5030755;28;20029;-71
2022/08/15 08:16:01;;;;;;;12.75;9.77;;;;;;;22.80;73.22;97658.41;5029828;28;20064;-70
2022/08/15 08:18:41;;;;;;;12.32;9.25;;;;;;;22.80;72.72;97652.81;5030890;28;20030;-71
2022/08/15 08:21:13;;;;;;;13.00;10.25;;;;;;;22.88;72.76;97648.84;5030030;28;20095;-70
2022/08/15 08:23:46;;;;;;;12.20;9.55;;;;;;;22.95;72.70;97650.81;5030685;28;20104;-70
2022/08/15 08:26:45;;;;;;;11.57;9.50;;;;;;;23.05;72.52;97649.22;5030345;28;20029;-71
2022/08/15 08:29:39;;;;;;;13.18;10.70;;;;;;;23.16;72.04;97650.03;5030528;28;20036;-71
2022/08/15 08:32:17;;;;;;;12.45;10.00;;;;;;;23.24;71.81;97641.66;5030490;28;20032;-69
2022/08/15 08:34:59;;;;;;;12.15;9.85;;;;;;;23.29;71.11;97644.84;5030660;28;20018;-70
2022/08/15 08:37:46;;;;;;;12.48;10.27;;;;;;;23.34;71.29;97643.66;5031012;28;20268;-70
2022/08/15 08:43:43;;;;;;;12.63;9.45;;;;;;;23.56;71.31;97650.00;5030333;28;20131;-70
2022/08/15 08:46:21;;;;;;;10.15;8.75;;;;;;;23.69;70.10;97652.34;5030217;28;20087;-71
2022/08/15 08:49:02;;;;;;;12.07;9.20;;;;;;;23.75;70.44;97643.16;5030434;28;20036;-71
2022/08/15 08:51:34;;;;;;;11.30;9.32;;;;;;;23.85;70.04;97643.50;5029527;28;20890;-71
2022/08/15 08:54:12;;;;;;;11.32;8.63;;;;;;;23.86;69.35;97640.31;5030698;28;20026;-71
2022/08/15 08:56:46;;;;;;;10.85;8.73;;;;;;;23.90;69.38;97641.09;5030807;28;20030;-71
2022/08/15 08:59:24;;;;;;;11.25;9.15;;;;;;;24.01;68.82;97643.88;5029666;28;20029;-71
2022/08/15 09:02:18;;;;;;;9.77;8.40;;;;;;;24.13;66.10;97645.41;5029909;28;20029;-70
2022/08/15 09:04:49;;;;;;;9.70;8.32;;;;;;;24.12;67.03;97648.63;5025970;28;20038;-71
2022/08/15 09:07:19;;;;;;;11.15;8.80;;;;;;;24.15;66.51;97645.03;5030214;28;20029;-71
2022/08/15 09:09:46;;;;;;;11.82;8.50;;;;;;;24.21;66.68;97644.19;5029726;28;20025;-71
2022/08/15 09:15:05;;;;;;;11.55;8.52;;;;;;;24.44;66.69;97642.88;5029027;28;20041;-71
2022/08/15 09:17:34;;;;;;;8.70;7.80;;;;;;;24.53;66.58;97642.41;5026601;28;20428;-71
2022/08/15 09:20:06;;;;;;;18.88;15.02;;;;;;;24.67;66.12;97647.09;5028311;28;20026;-71
2022/08/15 09:22:32;;;;;;;11.25;9.50;;;;;;;24.76;65.16;97649.47;5028328;28;20026;-71
2022/08/15 09:24:58;;;;;;;10.10;8.77;;;;;;;24.79;63.42;97645.84;5028290;28;20080;-71
2022/08/15 09:27:48;;;;;;;10.45;8.95;;;;;;;24.84;65.05;97639.03;5027609;28;20029;-71
2022/08/15 09:30:14;;;;;;;10.30;8.73;;;;;;;24.93;64.47;97642.13;5009588;28;20048;-70
2022/08/15 09:32:55;;;;;;;11.35;9.18;;;;;;;25.01;64.79;97637.28;5032848;28;20388;-70
2022/08/15 09:35:52;;;;;;;12.05;9.55;;;;;;;25.10;64.60;97638.38;5033199;28;20029;-70
2022/08/15 09:38:37;;;;;;;14.32;11.10;;;;;;;25.22;64.85;97633.47;5032145;28;20104;-69
2022/08/15 09:41:40;;;;;;;10.90;9.52;;;;;;;25.34;64.40;97634.97;5032784;28;20044;-71
2022/08/15 09:44:19;;;;;;;8.93;8.00;;;;;;;25.43;63.84;97629.66;5032074;28;20408;-71
2022/08/15 09:46:45;;;;;;;;;;;;;;;25.48;62.45;97629.22;5031825;28;20185;-71
2022/08/15 09:49:17;;;;;;;8.35;7.53;;;;;;;25.46;61.67;97619.63;5031591;28;20023;-71
2022/08/15 09:51:57;;;;;;;9.73;7.70;;;;;;;25.46;61.22;97628.88;5028141;28;20029;-71
2022/08/15 09:54:25;;;;;;;9.80;8.35;;;;;;;25.47;59.38;97621.22;5030766;28;20034;-73
2022/08/15 09:57:19;;;;;;;8.55;7.65;;;;;;;25.48;60.56;97609.56;5031073;28;20030;-72
2022/08/15 09:59:51;;;;;;;9.27;8.10;;;;;;;25.51;60.53;97605.16;5030271;28;20112;-71
2022/08/15 10:02:17;;;;;;;10.43;8.23;;;;;;;25.55;59.53;97620.72;5029918;28;20105;-71
2022/08/15 10:04:48;;;;;;;10.38;8.80;;;;;;;25.56;57.86;97613.91;5030229;28;20116;-71
2022/08/15 10:07:14;;;;;;;9.38;8.07;;;;;;;25.61;57.77;97606.22;5029183;28;20031;-71
2022/08/15 10:09:59;;;;;;;9.93;7.88;;;;;;;25.66;57.59;97608.59;5031693;28;20025;-71
2022/08/15 10:12:25;;;;;;;8.82;7.93;;;;;;;25.70;58.14;97612.94;5024676;28;20053;-71
2022/08/15 10:14:53;;;;;;;11.10;8.90;;;;;;;25.78;58.49;97601.63;5031727;28;20032;-71
2022/08/15 10:17:39;;;;;;;10.20;8.50;;;;;;;25.89;58.46;97604.28;5032073;28;20030;-73
2022/08/15 10:20:14;;;;;;;10.60;8.40;;;;;;;25.98;57.62;97601.75;5032268;28;20034;-71
2022/08/15 10:22:48;;;;;;;9.20;8.20;;;;;;;26.05;57.95;97592.47;5031169;28;20029;-73
2022/08/15 10:25:17;;;;;;;8.50;7.70;;;;;;;26.10;57.45;97592.78;5032634;28;20091;-73
2022/08/15 10:28:12;;;;;;;19.02;9.35;;;;;;;26.18;57.89;97592.72;5032287;28;20021;-72
2022/08/15 10:30:46;;;;;;;10.10;8.80;;;;;;;26.26;57.12;97585.78;5016811;28;20048;-73
2022/08/15 10:33:33;;;;;;;9.75;8.50;;;;;;;26.35;57.64;97588.06;5029688;28;20034;-74
2022/08/15 10:36:23;;;;;;;10.50;8.70;;;;;;;26.49;57.80;97598.28;5032584;28;20075;-73
2022/08/15 10:38:57;;;;;;;9.93;8.82;;;;;;;26.62;57.41;97588.06;5030258;28;20479;-73
2022/08/15 10:41:45;;;;;;;10.00;8.35;;;;;;;26.74;57.74;97589.47;5031714;28;20029;-74
2022/08/15 10:44:32;;;;;;;8.68;7.70;;;;;;;26.85;57.82;97589.31;5031799;28;20124;-74
2022/08/15 10:47:15;;;;;;;10.70;9.20;;;;;;;26.98;57.47;97593.09;5031796;28;20029;-71
2022/08/15 10:49:49;;;;;;;10.25;9.18;;;;;;;27.14;57.42;97594.44;5031075;28;20029;-71
2022/08/15 10:52:22;;;;;;;11.18;9.10;;;;;;;27.22;56.88;97593.06;5030929;28;20025;-71
2022/08/15 10:55:17;;;;;;;10.90;9.38;;;;;;;27.30;57.03;97590.94;5032043;28;20076;-71
2022/08/15 10:57:49;;;;;;;9.20;8.30;;;;;;;27.47;56.86;97589.00;5032033;28;20029;-71
2022/08/15 11:00:29;;;;;;;8.77;7.90;;;;;;;27.62;56.27;97592.38;5031817;28;20499;-71
2022/08/15 11:02:55;;;;;;;8.48;7.68;;;;;;;27.75;54.33;97586.88;5032083;28;20049;-71
2022/08/15 11:05:21;;;;;;;8.40;7.60;;;;;;;27.87;54.42;97602.31;5032046;28;20100;-71
2022/08/15 11:07:54;;;;;;;8.95;7.35;;;;;;;28.00;53.87;97597.63;5032282;28;20025;-71
2022/08/15 11:10:23;;;;;;;8.20;7.13;;;;;;;28.12;53.75;97590.53;5031426;28;20029;-70
2022/08/15 11:12:54;;;;;;;9.02;7.57;;;;;;;28.22;54.03;97592.34;5032398;28;20075;-71
2022/08/15 11:15:46;;;;;;;7.03;6.03;;;;;;;28.36;53.75;97590.41;5032076;28;20029;-70
2022/08/15 11:18:12;;;;;;;7.03;6.28;;;;;;;28.42;51.84;97594.31;5032153;28;20030;-72
2022/08/15 11:20:57;;;;;;;7.43;6.70;;;;;;;28.45;52.06;97590.59;5031049;28;20048;-71
2022/08/15 11:23:39;;;;;;;7.88;6.88;;;;;;;28.57;52.32;97588.34;5028470;28;20105;-71
2022/08/15 11:26:07;;;;;;;7.32;6.60;;;;;;;28.64;52.07;97583.31;5031794;28;20211;-72
2022/08/15 11:28:39;;;;;;;8.75;7.03;;;;;;;28.75;52.08;97585.88;5030395;28;20383;-71
2022/08/15 11:31:16;;;;;;;7.32;6.63;;;;;;;28.88;52.33;97582.38;5031016;28;20064;-71
2022/08/15 11:33:48;;;;;;;7.78;6.72;;;;;;;29.03;50.70;97583.59;5031605;28;20507;-72
2022/08/15 11:36:25;;;;;;;6.35;5.75;;;;;;;29.08;49.34;97579.44;5031353;28;20026;-72
2022/08/15 11:38:54;;;;;;;7.40;6.60;;;;;;;29.08;48.23;97576.59;5028127;28;20021;-72
2022/08/15 11:41:30;;;;;;;8.52;6.95;;;;;;;29.05;48.55;97571.84;5030817;28;20030;-72
2022/08/15 11:44:00;;;;;;;11.30;8.43;;;;;;;29.03;48.98;97580.78;5031242;28;20861;-73
2022/08/15 11:46:26;;;;;;;13.25;11.70;;;;;;;29.14;49.34;97579.69;5031153;28;20091;-73
2022/08/15 11:49:03;;;;;;;9.45;7.97;;;;;;;29.24;49.96;97576.59;5030204;28;20060;-73
2022/08/15 11:51:44;;;;;;;8.15;7.32;;;;;;;29.32;49.73;97582.03;5030788;28;20108;-73
2022/08/15 11:54:15;;;;;;;8.52;7.68;;;;;;;29.39;49.08;97579.84;5030464;28;20017;-72
2022/08/15 11:56:43;;;;;;;7.72;6.93;;;;;;;29.48;49.51;97582.00;5030532;28;20464;-73
2022/08/15 11:59:29;;;;;;;8.07;7.32;;;;;;;29.53;47.71;97575.03;5030023;28;20041;-73